ADDS METAR Data INFO
IDs: Format: Raw Decoded Include TAF

Data at: 1950 UTC 14 Aug 2018

PHNL 141853Z 05011KT 10SM FEW025 FEW050 SCT200 28/19 A3000 RMK AO2 SLP160 T02830194
PHNL 141753Z 07010KT 10SM FEW025 FEW050 SCT150 27/20 A3000 RMK AO2 SLP158 T02670200 10267 20233 53009
PHNL 141653Z 00000KT 10SM CLR 24/20 A2999 RMK AO2 SLP154 T02390200
PHNL 141553Z 00000KT 10SM FEW025 23/19 A2997 RMK AO2 SLP149 T02330194
PHNL 141453Z 34003KT 10SM FEW024 24/19 A2997 RMK AO2 SLP148 T02390194 55010
PHNL 141353Z 31003KT 10SM FEW025 24/19 A2997 RMK AO2 SLP148 T02440194
PHNL 141253Z 02005KT 10SM FEW024 25/19 A2998 RMK AO2 SLP151 T02500194
PHNL 141153Z 02004KT 10SM FEW024 25/19 A3000 RMK AO2 SLP159 T02500194 10267 20244 56016
PHNL 141053Z 04003KT 10SM FEW022 26/19 A3002 RMK AO2 SLP164 T02560194
PHNL 140953Z 04006KT 10SM FEW025 26/20 A3003 RMK AO2 SLP169 T02560200 403220256
PHNL 140853Z 06005KT 10SM FEW025 26/19 A3005 RMK AO2 SLP175 T02560194 50006
PHNL 140753Z 06003KT 10SM FEW024 26/19 A3005 RMK AO2 SLP175 T02610194
PHNL 140653Z 08008KT 10SM FEW024 FEW035 26/19 A3004 RMK AO2 SLP173 T02610194
PHNL 140553Z 09013KT 10SM FEW024 FEW040 27/20 A3003 RMK AO2 SLP169 T02670200 10322 20267 53011
PHNL 140453Z 06010KT 10SM FEW024 FEW040 28/19 A3001 RMK AO2 SLP163 T02780194
PHNL 140353Z 04011KT 10SM FEW022 FEW050 29/19 A3000 RMK AO2 SLP160 T02890194
PHNL 140253Z 04014G21KT 10SM FEW024 FEW050 SCT180 30/18 A3000 RMK AO2 SLP158 T03000183 58001
PHNL 140153Z 08016G21KT 10SM FEW024 SCT055 31/19 A3000 RMK AO2 SLP159 T03110189
PHNL 140053Z 08017KT 10SM FEW024 SCT055 31/18 A3000 RMK AO2 PK WND 08029/0000 SLP158 T03110183
PHNL 132353Z 05015G27KT 10SM FEW024 FEW055 32/19 A3000 RMK AO2 PK WND 09027/2350 SLP158 T03170189 10322 20278 58012
PHNL 132253Z 05016G24KT 10SM FEW025 SCT050 32/19 A3001 RMK AO2 SLP163 T03170194
PHNL 132153Z 06016KT 10SM FEW025 SCT050 SCT065 32/19 A3003 RMK AO2 SLP169 T03170194
PHNL 132053Z 07015KT 10SM FEW025 SCT050 31/20 A3003 RMK AO2 SLP170 T03110200 50003
PHNL 131953Z 07015G21KT 10SM FEW025 FEW050 31/19 A3004 RMK AO2 SLP171 T03060194
PHNL 131853Z 10011KT 10SM FEW025 FEW050 29/20 A3003 RMK AO2 SLP169 T02890200
PHNL 131753Z 06010KT 10SM FEW025 SCT060 28/21 A3003 RMK AO2 SLP167 T02780206 10278 20256 53008
PHNL 131653Z 08006KT 10SM FEW025 SCT065 26/21 A3002 RMK AO2 SLP165 T02560206
PHNL 131553Z 08010KT 10SM FEW036 FEW060 26/20 A3001 RMK AO2 SLP161 T02560200
PHNL 131453Z 09007KT 10SM FEW033 26/19 A3000 RMK AO2 SLP159 T02560194 55003
PHNL 131353Z 07009KT 10SM FEW025 FEW037 26/20 A3000 RMK AO2 SLP157 T02610200
PHNL 131253Z 05006KT 10SM FEW025 FEW043 SCT050 26/20 A3000 RMK AO2 SLP158 T02610200
PHNL 131153Z 07009KT 10SM FEW025 FEW037 26/20 A3001 RMK AO2 SLP162 T02610200 10272 20261 58011
PHNL 131053Z 04010KT 10SM FEW027 26/19 A3003 RMK AO2 SLP167 T02610194
PHNL 130953Z 06009KT 10SM FEW024 27/20 A3004 RMK AO2 SLP170 T02670200 403220250
PHNL 130853Z 05010KT 10SM FEW022 27/20 A3004 RMK AO2 SLP173 T02670200 51015
PHNL 130753Z 06010KT 10SM FEW022 27/20 A3004 RMK AO2 SLP172 T02670200